sensor_id;sensor_type;location;lat;lon;timestamp;P1;durP1;ratioP1;P2;durP2;ratioP2
75038;SDS011;63609;49.992;14.512;2022-12-24T00:01:01;4.90;;;2.80;;
75038;SDS011;63609;49.992;14.512;2022-12-24T00:03:29;5.68;;;2.65;;
75038;SDS011;63609;49.992;14.512;2022-12-24T00:05:56;5.15;;;2.50;;
75038;SDS011;63609;49.992;14.512;2022-12-24T00:08:23;3.47;;;2.00;;
75038;SDS011;63609;49.992;14.512;2022-12-24T00:10:50;3.45;;;2.13;;
75038;SDS011;63609;49.992;14.512;2022-12-24T00:13:17;4.22;;;1.98;;
75038;SDS011;63609;49.992;14.512;2022-12-24T00:15:45;3.35;;;2.13;;
75038;SDS011;63609;49.992;14.512;2022-12-24T00:18:12;3.58;;;2.00;;
75038;SDS011;63609;49.992;14.512;2022-12-24T00:20:39;3.35;;;1.70;;
75038;SDS011;63609;49.992;14.512;2022-12-24T00:23:05;5.10;;;2.15;;
75038;SDS011;63609;49.992;14.512;2022-12-24T00:25:32;3.35;;;1.67;;
75038;SDS011;63609;49.992;14.512;2022-12-24T00:27:59;3.58;;;1.75;;
75038;SDS011;63609;49.992;14.512;2022-12-24T00:32:52;2.30;;;1.55;;
75038;SDS011;63609;49.992;14.512;2022-12-24T00:35:19;2.67;;;1.20;;
75038;SDS011;63609;49.992;14.512;2022-12-24T00:40:14;3.65;;;1.45;;
75038;SDS011;63609;49.992;14.512;2022-12-24T00:42:42;3.45;;;1.70;;
75038;SDS011;63609;49.992;14.512;2022-12-24T00:45:09;3.40;;;1.50;;
75038;SDS011;63609;49.992;14.512;2022-12-24T00:47:37;3.35;;;1.58;;
75038;SDS011;63609;49.992;14.512;2022-12-24T00:50:04;3.05;;;1.30;;
75038;SDS011;63609;49.992;14.512;2022-12-24T00:52:31;3.40;;;1.40;;
75038;SDS011;63609;49.992;14.512;2022-12-24T00:54:58;3.30;;;1.65;;
75038;SDS011;63609;49.992;14.512;2022-12-24T00:57:25;4.00;;;1.75;;
75038;SDS011;63609;49.992;14.512;2022-12-24T00:59:51;3.75;;;1.42;;
75038;SDS011;63609;49.992;14.512;2022-12-24T01:04:45;2.42;;;1.02;;
75038;SDS011;63609;49.992;14.512;2022-12-24T01:07:30;3.30;;;1.55;;
75038;SDS011;63609;49.992;14.512;2022-12-24T01:09:57;2.83;;;1.20;;
75038;SDS011;63609;49.992;14.512;2022-12-24T01:12:24;3.65;;;1.60;;
75038;SDS011;63609;49.992;14.512;2022-12-24T01:14:51;2.80;;;1.30;;
75038;SDS011;63609;49.992;14.512;2022-12-24T01:19:44;3.05;;;1.30;;
75038;SDS011;63609;49.992;14.512;2022-12-24T01:22:11;2.95;;;1.20;;
75038;SDS011;63609;49.992;14.512;2022-12-24T01:24:38;4.20;;;1.70;;
75038;SDS011;63609;49.992;14.512;2022-12-24T01:27:06;4.20;;;1.20;;
75038;SDS011;63609;49.992;14.512;2022-12-24T01:29:33;2.75;;;1.05;;
75038;SDS011;63609;49.992;14.512;2022-12-24T01:32:00;1.50;;;0.90;;
75038;SDS011;63609;49.992;14.512;2022-12-24T01:34:27;3.00;;;0.88;;
75038;SDS011;63609;49.992;14.512;2022-12-24T01:36:53;2.03;;;1.05;;
75038;SDS011;63609;49.992;14.512;2022-12-24T01:39:20;2.45;;;1.00;;
75038;SDS011;63609;49.992;14.512;2022-12-24T01:44:33;2.65;;;1.20;;
75038;SDS011;63609;49.992;14.512;2022-12-24T01:47:22;1.08;;;0.68;;
75038;SDS011;63609;49.992;14.512;2022-12-24T01:49:55;2.22;;;1.08;;
75038;SDS011;63609;49.992;14.512;2022-12-24T01:52:26;1.35;;;0.73;;
75038;SDS011;63609;49.992;14.512;2022-12-24T01:54:57;2.28;;;0.70;;
75038;SDS011;63609;49.992;14.512;2022-12-24T01:57:27;2.10;;;0.90;;
75038;SDS011;63609;49.992;14.512;2022-12-24T01:59:58;1.80;;;1.08;;
75038;SDS011;63609;49.992;14.512;2022-12-24T02:02:30;3.40;;;0.63;;
75038;SDS011;63609;49.992;14.512;2022-12-24T02:07:33;1.50;;;0.70;;
75038;SDS011;63609;49.992;14.512;2022-12-24T02:10:01;3.20;;;0.80;;
75038;SDS011;63609;49.992;14.512;2022-12-24T02:12:31;1.27;;;0.60;;
75038;SDS011;63609;49.992;14.512;2022-12-24T02:15:00;4.28;;;1.10;;
75038;SDS011;63609;49.992;14.512;2022-12-24T02:25:55;2.38;;;0.70;;
75038;SDS011;63609;49.992;14.512;2022-12-24T02:30:53;1.88;;;0.80;;
75038;SDS011;63609;49.992;14.512;2022-12-24T02:33:36;2.20;;;0.80;;
75038;SDS011;63609;49.992;14.512;2022-12-24T02:36:28;1.38;;;0.73;;
75038;SDS011;63609;49.992;14.512;2022-12-24T02:39:01;5.40;;;1.00;;
75038;SDS011;63609;49.992;14.512;2022-12-24T02:41:35;4.28;;;0.77;;
75038;SDS011;63609;49.992;14.512;2022-12-24T02:44:24;4.60;;;1.42;;
75038;SDS011;63609;49.992;14.512;2022-12-24T02:46:53;3.63;;;0.68;;
75038;SDS011;63609;49.992;14.512;2022-12-24T02:49:22;2.70;;;0.65;;
75038;SDS011;63609;49.992;14.512;2022-12-24T02:51:49;2.78;;;1.30;;
75038;SDS011;63609;49.992;14.512;2022-12-24T02:54:15;1.45;;;0.88;;
75038;SDS011;63609;49.992;14.512;2022-12-24T03:02:18;3.90;;;0.90;;
75038;SDS011;63609;49.992;14.512;2022-12-24T03:04:58;3.08;;;1.00;;
75038;SDS011;63609;49.992;14.512;2022-12-24T03:07:33;1.27;;;0.60;;
75038;SDS011;63609;49.992;14.512;2022-12-24T03:10:20;2.00;;;0.88;;
75038;SDS011;63609;49.992;14.512;2022-12-24T03:13:06;5.57;;;0.85;;
75038;SDS011;63609;49.992;14.512;2022-12-24T03:15:38;0.75;;;0.50;;
75038;SDS011;63609;49.992;14.512;2022-12-24T03:18:07;1.48;;;0.52;;
75038;SDS011;63609;49.992;14.512;2022-12-24T03:20:37;1.70;;;1.30;;
75038;SDS011;63609;49.992;14.512;2022-12-24T03:23:10;2.45;;;0.77;;
75038;SDS011;63609;49.992;14.512;2022-12-24T03:25:38;4.82;;;0.80;;
75038;SDS011;63609;49.992;14.512;2022-12-24T03:28:07;1.42;;;0.75;;
75038;SDS011;63609;49.992;14.512;2022-12-24T03:30:41;3.40;;;1.10;;
75038;SDS011;63609;49.992;14.512;2022-12-24T03:35:37;4.88;;;0.90;;
75038;SDS011;63609;49.992;14.512;2022-12-24T03:38:05;2.85;;;0.57;;
75038;SDS011;63609;49.992;14.512;2022-12-24T03:40:32;2.78;;;0.90;;
75038;SDS011;63609;49.992;14.512;2022-12-24T03:42:59;2.95;;;1.00;;
75038;SDS011;63609;49.992;14.512;2022-12-24T03:47:52;1.25;;;0.63;;
75038;SDS011;63609;49.992;14.512;2022-12-24T03:50:19;3.70;;;0.70;;
75038;SDS011;63609;49.992;14.512;2022-12-24T03:52:46;3.20;;;0.70;;
75038;SDS011;63609;49.992;14.512;2022-12-24T03:57:39;2.35;;;0.70;;
75038;SDS011;63609;49.992;14.512;2022-12-24T04:00:06;2.15;;;0.80;;
75038;SDS011;63609;49.992;14.512;2022-12-24T04:02:41;4.43;;;1.10;;
75038;SDS011;63609;49.992;14.512;2022-12-24T04:05:12;3.08;;;0.80;;
75038;SDS011;63609;49.992;14.512;2022-12-24T04:07:40;3.67;;;0.82;;
75038;SDS011;63609;49.992;14.512;2022-12-24T04:10:07;2.92;;;1.10;;
75038;SDS011;63609;49.992;14.512;2022-12-24T04:12:35;1.77;;;0.93;;
75038;SDS011;63609;49.992;14.512;2022-12-24T04:15:03;3.60;;;1.02;;
75038;SDS011;63609;49.992;14.512;2022-12-24T04:17:30;3.03;;;0.90;;
75038;SDS011;63609;49.992;14.512;2022-12-24T04:19:58;2.90;;;0.77;;
75038;SDS011;63609;49.992;14.512;2022-12-24T04:22:24;4.35;;;1.20;;
75038;SDS011;63609;49.992;14.512;2022-12-24T04:24:51;5.97;;;1.75;;
75038;SDS011;63609;49.992;14.512;2022-12-24T04:27:18;2.47;;;0.57;;
75038;SDS011;63609;49.992;14.512;2022-12-24T04:29:47;4.63;;;0.82;;
75038;SDS011;63609;49.992;14.512;2022-12-24T04:32:13;4.80;;;0.90;;
75038;SDS011;63609;49.992;14.512;2022-12-24T04:34:40;1.90;;;1.02;;
75038;SDS011;63609;49.992;14.512;2022-12-24T04:39:33;4.43;;;0.80;;
75038;SDS011;63609;49.992;14.512;2022-12-24T04:42:00;3.70;;;0.77;;
75038;SDS011;63609;49.992;14.512;2022-12-24T04:44:27;7.78;;;1.35;;
75038;SDS011;63609;49.992;14.512;2022-12-24T04:46:53;2.70;;;0.90;;
75038;SDS011;63609;49.992;14.512;2022-12-24T04:49:20;4.45;;;1.20;;
75038;SDS011;63609;49.992;14.512;2022-12-24T04:51:47;1.52;;;0.70;;
75038;SDS011;63609;49.992;14.512;2022-12-24T04:54:14;4.18;;;0.98;;
75038;SDS011;63609;49.992;14.512;2022-12-24T04:56:41;3.63;;;1.20;;
75038;SDS011;63609;49.992;14.512;2022-12-24T04:59:08;5.13;;;0.95;;
75038;SDS011;63609;49.992;14.512;2022-12-24T05:01:35;2.60;;;1.30;;
75038;SDS011;63609;49.992;14.512;2022-12-24T05:04:01;4.72;;;0.80;;
75038;SDS011;63609;49.992;14.512;2022-12-24T05:06:29;3.03;;;1.10;;
75038;SDS011;63609;49.992;14.512;2022-12-24T05:08:57;5.53;;;1.25;;
75038;SDS011;63609;49.992;14.512;2022-12-24T05:11:25;2.70;;;0.85;;
75038;SDS011;63609;49.992;14.512;2022-12-24T05:13:52;2.28;;;0.90;;
75038;SDS011;63609;49.992;14.512;2022-12-24T05:16:20;5.93;;;1.17;;
75038;SDS011;63609;49.992;14.512;2022-12-24T05:18:48;2.63;;;0.80;;
75038;SDS011;63609;49.992;14.512;2022-12-24T05:21:16;4.57;;;1.02;;
75038;SDS011;63609;49.992;14.512;2022-12-24T05:23:45;4.78;;;0.90;;
75038;SDS011;63609;49.992;14.512;2022-12-24T05:31:40;2.33;;;0.70;;
75038;SDS011;63609;49.992;14.512;2022-12-24T05:34:08;1.60;;;0.65;;
75038;SDS011;63609;49.992;14.512;2022-12-24T05:36:36;3.88;;;0.85;;
75038;SDS011;63609;49.992;14.512;2022-12-24T05:39:04;3.00;;;1.00;;
75038;SDS011;63609;49.992;14.512;2022-12-24T05:41:40;2.17;;;0.95;;
75038;SDS011;63609;49.992;14.512;2022-12-24T05:44:07;1.15;;;0.65;;
75038;SDS011;63609;49.992;14.512;2022-12-24T05:46:33;2.53;;;0.75;;
75038;SDS011;63609;49.992;14.512;2022-12-24T05:49:00;2.35;;;0.77;;
75038;SDS011;63609;49.992;14.512;2022-12-24T05:51:27;4.55;;;0.82;;
75038;SDS011;63609;49.992;14.512;2022-12-24T05:53:54;8.13;;;0.70;;
75038;SDS011;63609;49.992;14.512;2022-12-24T05:56:21;3.92;;;0.90;;
75038;SDS011;63609;49.992;14.512;2022-12-24T05:58:49;2.72;;;0.80;;
75038;SDS011;63609;49.992;14.512;2022-12-24T06:01:17;2.15;;;0.60;;
75038;SDS011;63609;49.992;14.512;2022-12-24T06:03:44;4.25;;;0.80;;
75038;SDS011;63609;49.992;14.512;2022-12-24T06:06:12;1.17;;;0.60;;
75038;SDS011;63609;49.992;14.512;2022-12-24T06:08:40;1.70;;;0.60;;
75038;SDS011;63609;49.992;14.512;2022-12-24T06:11:09;3.05;;;0.57;;
75038;SDS011;63609;49.992;14.512;2022-12-24T06:13:38;6.28;;;1.00;;
75038;SDS011;63609;49.992;14.512;2022-12-24T06:16:06;6.82;;;0.82;;
75038;SDS011;63609;49.992;14.512;2022-12-24T06:18:39;2.50;;;1.02;;
75038;SDS011;63609;49.992;14.512;2022-12-24T06:21:06;4.47;;;1.00;;
75038;SDS011;63609;49.992;14.512;2022-12-24T06:23:34;2.80;;;1.10;;
75038;SDS011;63609;49.992;14.512;2022-12-24T06:26:03;1.17;;;0.60;;
75038;SDS011;63609;49.992;14.512;2022-12-24T06:28:32;2.47;;;0.55;;
75038;SDS011;63609;49.992;14.512;2022-12-24T06:31:00;2.53;;;0.80;;
75038;SDS011;63609;49.992;14.512;2022-12-24T06:33:29;2.47;;;1.10;;
75038;SDS011;63609;49.992;14.512;2022-12-24T06:35:57;2.67;;;0.70;;
75038;SDS011;63609;49.992;14.512;2022-12-24T06:38:24;6.15;;;1.15;;
75038;SDS011;63609;49.992;14.512;2022-12-24T06:40:51;2.55;;;0.63;;
75038;SDS011;63609;49.992;14.512;2022-12-24T06:43:18;3.67;;;0.95;;
75038;SDS011;63609;49.992;14.512;2022-12-24T06:45:45;3.67;;;1.00;;
75038;SDS011;63609;49.992;14.512;2022-12-24T06:48:13;3.95;;;1.20;;
75038;SDS011;63609;49.992;14.512;2022-12-24T06:50:46;2.45;;;0.90;;
75038;SDS011;63609;49.992;14.512;2022-12-24T06:53:13;2.33;;;0.77;;
75038;SDS011;63609;49.992;14.512;2022-12-24T06:55:40;3.28;;;0.93;;
75038;SDS011;63609;49.992;14.512;2022-12-24T06:58:06;4.93;;;1.38;;
75038;SDS011;63609;49.992;14.512;2022-12-24T07:00:33;4.22;;;1.00;;
75038;SDS011;63609;49.992;14.512;2022-12-24T07:03:01;4.80;;;1.48;;
75038;SDS011;63609;49.992;14.512;2022-12-24T07:05:28;3.22;;;1.13;;
75038;SDS011;63609;49.992;14.512;2022-12-24T07:07:55;1.70;;;0.75;;
75038;SDS011;63609;49.992;14.512;2022-12-24T07:10:22;5.60;;;1.02;;
75038;SDS011;63609;49.992;14.512;2022-12-24T07:12:49;3.35;;;0.90;;
75038;SDS011;63609;49.992;14.512;2022-12-24T07:15:16;4.57;;;1.08;;
75038;SDS011;63609;49.992;14.512;2022-12-24T07:17:43;3.33;;;0.93;;
75038;SDS011;63609;49.992;14.512;2022-12-24T07:20:11;3.15;;;1.13;;
75038;SDS011;63609;49.992;14.512;2022-12-24T07:22:40;6.00;;;1.20;;
75038;SDS011;63609;49.992;14.512;2022-12-24T07:25:07;4.95;;;1.17;;
75038;SDS011;63609;49.992;14.512;2022-12-24T07:27:35;4.53;;;1.00;;
75038;SDS011;63609;49.992;14.512;2022-12-24T07:30:03;2.15;;;0.80;;
75038;SDS011;63609;49.992;14.512;2022-12-24T07:32:30;1.58;;;0.80;;
75038;SDS011;63609;49.992;14.512;2022-12-24T07:34:57;3.20;;;1.23;;
75038;SDS011;63609;49.992;14.512;2022-12-24T07:39:51;5.55;;;1.27;;
75038;SDS011;63609;49.992;14.512;2022-12-24T07:42:19;2.33;;;1.20;;
75038;SDS011;63609;49.992;14.512;2022-12-24T07:44:47;3.00;;;1.30;;
75038;SDS011;63609;49.992;14.512;2022-12-24T07:47:14;7.80;;;1.30;;
75038;SDS011;63609;49.992;14.512;2022-12-24T07:49:41;2.97;;;1.23;;
75038;SDS011;63609;49.992;14.512;2022-12-24T07:52:08;6.75;;;1.85;;
75038;SDS011;63609;49.992;14.512;2022-12-24T07:54:35;4.43;;;1.20;;
75038;SDS011;63609;49.992;14.512;2022-12-24T07:59:29;10.55;;;1.70;;
75038;SDS011;63609;49.992;14.512;2022-12-24T08:01:55;6.13;;;1.20;;
75038;SDS011;63609;49.992;14.512;2022-12-24T08:04:22;4.63;;;1.25;;
75038;SDS011;63609;49.992;14.512;2022-12-24T08:06:49;3.17;;;1.45;;
75038;SDS011;63609;49.992;14.512;2022-12-24T08:11:43;4.15;;;1.77;;
75038;SDS011;63609;49.992;14.512;2022-12-24T08:14:17;6.93;;;1.55;;
75038;SDS011;63609;49.992;14.512;2022-12-24T08:16:44;8.70;;;2.10;;
75038;SDS011;63609;49.992;14.512;2022-12-24T08:19:11;6.40;;;1.05;;
75038;SDS011;63609;49.992;14.512;2022-12-24T08:21:39;3.88;;;1.00;;
75038;SDS011;63609;49.992;14.512;2022-12-24T08:24:06;3.33;;;1.33;;
75038;SDS011;63609;49.992;14.512;2022-12-24T08:26:33;4.70;;;1.60;;
75038;SDS011;63609;49.992;14.512;2022-12-24T08:29:00;6.85;;;1.75;;
75038;SDS011;63609;49.992;14.512;2022-12-24T08:31:28;2.10;;;0.75;;
75038;SDS011;63609;49.992;14.512;2022-12-24T08:33:56;2.65;;;0.85;;
75038;SDS011;63609;49.992;14.512;2022-12-24T08:36:23;4.63;;;1.63;;
75038;SDS011;63609;49.992;14.512;2022-12-24T08:38:49;7.38;;;1.17;;
75038;SDS011;63609;49.992;14.512;2022-12-24T08:41:16;6.15;;;1.55;;
75038;SDS011;63609;49.992;14.512;2022-12-24T08:43:43;7.95;;;1.63;;
75038;SDS011;63609;49.992;14.512;2022-12-24T08:46:10;5.68;;;1.00;;
75038;SDS011;63609;49.992;14.512;2022-12-24T08:48:37;4.00;;;1.17;;
75038;SDS011;63609;49.992;14.512;2022-12-24T08:51:07;7.22;;;1.00;;
75038;SDS011;63609;49.992;14.512;2022-12-24T08:53:35;3.85;;;1.08;;
75038;SDS011;63609;49.992;14.512;2022-12-24T08:56:03;6.65;;;1.30;;
75038;SDS011;63609;49.992;14.512;2022-12-24T08:58:31;6.53;;;1.58;;
75038;SDS011;63609;49.992;14.512;2022-12-24T09:00:58;4.18;;;1.17;;
75038;SDS011;63609;49.992;14.512;2022-12-24T09:03:25;4.18;;;1.10;;
75038;SDS011;63609;49.992;14.512;2022-12-24T09:05:53;2.97;;;0.88;;
75038;SDS011;63609;49.992;14.512;2022-12-24T09:08:20;3.90;;;1.55;;
75038;SDS011;63609;49.992;14.512;2022-12-24T09:10:47;4.28;;;1.02;;
75038;SDS011;63609;49.992;14.512;2022-12-24T09:13:14;2.90;;;1.23;;
75038;SDS011;63609;49.992;14.512;2022-12-24T09:15:40;4.20;;;1.13;;
75038;SDS011;63609;49.992;14.512;2022-12-24T09:18:07;6.68;;;1.52;;
75038;SDS011;63609;49.992;14.512;2022-12-24T09:20:34;5.63;;;1.73;;
75038;SDS011;63609;49.992;14.512;2022-12-24T09:23:00;3.33;;;1.30;;
75038;SDS011;63609;49.992;14.512;2022-12-24T09:25:27;4.88;;;1.25;;
75038;SDS011;63609;49.992;14.512;2022-12-24T09:27:54;6.53;;;1.60;;
75038;SDS011;63609;49.992;14.512;2022-12-24T09:30:21;9.63;;;1.58;;
75038;SDS011;63609;49.992;14.512;2022-12-24T09:32:49;4.55;;;1.25;;
75038;SDS011;63609;49.992;14.512;2022-12-24T09:35:17;6.15;;;1.60;;
75038;SDS011;63609;49.992;14.512;2022-12-24T09:37:43;5.93;;;1.20;;
75038;SDS011;63609;49.992;14.512;2022-12-24T09:40:16;3.60;;;1.10;;
75038;SDS011;63609;49.992;14.512;2022-12-24T09:42:50;4.15;;;1.00;;
75038;SDS011;63609;49.992;14.512;2022-12-24T09:45:21;6.07;;;1.55;;
75038;SDS011;63609;49.992;14.512;2022-12-24T09:47:58;3.22;;;1.02;;
75038;SDS011;63609;49.992;14.512;2022-12-24T09:50:40;7.60;;;1.58;;
75038;SDS011;63609;49.992;14.512;2022-12-24T09:53:17;3.60;;;1.10;;
75038;SDS011;63609;49.992;14.512;2022-12-24T09:55:46;4.85;;;1.33;;
75038;SDS011;63609;49.992;14.512;2022-12-24T09:58:20;6.65;;;0.93;;
75038;SDS011;63609;49.992;14.512;2022-12-24T10:00:51;4.72;;;1.10;;
75038;SDS011;63609;49.992;14.512;2022-12-24T10:03:19;6.07;;;1.50;;
75038;SDS011;63609;49.992;14.512;2022-12-24T10:10:59;2.55;;;1.10;;
75038;SDS011;63609;49.992;14.512;2022-12-24T10:19:35;6.10;;;1.60;;
75038;SDS011;63609;49.992;14.512;2022-12-24T10:27:47;4.07;;;1.05;;
75038;SDS011;63609;49.992;14.512;2022-12-24T10:30:15;3.03;;;0.73;;
75038;SDS011;63609;49.992;14.512;2022-12-24T10:32:54;4.03;;;1.30;;
75038;SDS011;63609;49.992;14.512;2022-12-24T10:35:22;3.13;;;1.23;;
75038;SDS011;63609;49.992;14.512;2022-12-24T10:37:53;6.07;;;1.70;;
75038;SDS011;63609;49.992;14.512;2022-12-24T10:40:38;4.13;;;1.42;;
75038;SDS011;63609;49.992;14.512;2022-12-24T10:43:16;2.78;;;1.10;;
75038;SDS011;63609;49.992;14.512;2022-12-24T10:45:46;7.55;;;1.60;;
75038;SDS011;63609;49.992;14.512;2022-12-24T10:48:29;3.25;;;0.93;;
75038;SDS011;63609;49.992;14.512;2022-12-24T10:50:58;3.92;;;1.20;;
75038;SDS011;63609;49.992;14.512;2022-12-24T10:56:10;5.90;;;1.40;;
75038;SDS011;63609;49.992;14.512;2022-12-24T10:58:50;3.63;;;1.25;;
75038;SDS011;63609;49.992;14.512;2022-12-24T11:01:19;5.78;;;1.40;;
75038;SDS011;63609;49.992;14.512;2022-12-24T11:04:12;5.30;;;1.50;;
75038;SDS011;63609;49.992;14.512;2022-12-24T11:06:52;3.05;;;0.98;;
75038;SDS011;63609;49.992;14.512;2022-12-24T11:09:24;6.93;;;1.48;;
75038;SDS011;63609;49.992;14.512;2022-12-24T11:11:54;6.10;;;1.75;;
75038;SDS011;63609;49.992;14.512;2022-12-24T11:14:26;3.53;;;1.10;;
75038;SDS011;63609;49.992;14.512;2022-12-24T11:16:58;3.10;;;1.30;;
75038;SDS011;63609;49.992;14.512;2022-12-24T11:19:29;5.78;;;1.25;;
75038;SDS011;63609;49.992;14.512;2022-12-24T11:22:00;4.47;;;1.35;;
75038;SDS011;63609;49.992;14.512;2022-12-24T11:24:33;2.50;;;1.45;;
75038;SDS011;63609;49.992;14.512;2022-12-24T11:27:23;8.60;;;2.00;;
75038;SDS011;63609;49.992;14.512;2022-12-24T11:30:12;3.63;;;1.20;;
75038;SDS011;63609;49.992;14.512;2022-12-24T11:32:46;2.65;;;1.08;;
75038;SDS011;63609;49.992;14.512;2022-12-24T11:35:38;5.03;;;1.00;;
75038;SDS011;63609;49.992;14.512;2022-12-24T11:38:09;4.05;;;1.10;;
75038;SDS011;63609;49.992;14.512;2022-12-24T11:40:41;5.57;;;1.02;;
75038;SDS011;63609;49.992;14.512;2022-12-24T11:43:14;7.20;;;1.40;;
75038;SDS011;63609;49.992;14.512;2022-12-24T11:48:31;3.95;;;1.02;;
75038;SDS011;63609;49.992;14.512;2022-12-24T11:51:01;6.10;;;1.65;;
75038;SDS011;63609;49.992;14.512;2022-12-24T11:59:22;4.40;;;1.67;;
75038;SDS011;63609;49.992;14.512;2022-12-24T12:04:29;5.43;;;1.90;;
75038;SDS011;63609;49.992;14.512;2022-12-24T12:07:00;6.75;;;1.60;;
75038;SDS011;63609;49.992;14.512;2022-12-24T12:09:41;2.88;;;1.38;;
75038;SDS011;63609;49.992;14.512;2022-12-24T12:12:16;5.53;;;1.75;;
75038;SDS011;63609;49.992;14.512;2022-12-24T12:22:51;6.53;;;1.95;;
75038;SDS011;63609;49.992;14.512;2022-12-24T12:25:22;4.22;;;1.20;;
75038;SDS011;63609;49.992;14.512;2022-12-24T12:27:57;5.32;;;1.30;;
75038;SDS011;63609;49.992;14.512;2022-12-24T12:30:27;5.25;;;1.63;;
75038;SDS011;63609;49.992;14.512;2022-12-24T12:33:59;9.23;;;1.85;;
75038;SDS011;63609;49.992;14.512;2022-12-24T12:36:00;3.63;;;1.17;;
75038;SDS011;63609;49.992;14.512;2022-12-24T12:38:29;4.88;;;1.33;;
75038;SDS011;63609;49.992;14.512;2022-12-24T12:47:07;4.60;;;1.30;;
75038;SDS011;63609;49.992;14.512;2022-12-24T12:49:50;4.05;;;1.33;;
75038;SDS011;63609;49.992;14.512;2022-12-24T12:52:51;4.65;;;1.33;;
75038;SDS011;63609;49.992;14.512;2022-12-24T13:00:34;3.45;;;1.38;;
75038;SDS011;63609;49.992;14.512;2022-12-24T13:03:18;2.92;;;1.10;;
75038;SDS011;63609;49.992;14.512;2022-12-24T13:14:48;5.90;;;1.30;;
75038;SDS011;63609;49.992;14.512;2022-12-24T13:17:26;1.85;;;0.95;;
75038;SDS011;63609;49.992;14.512;2022-12-24T13:25:35;3.72;;;1.60;;
75038;SDS011;63609;49.992;14.512;2022-12-24T13:31:21;4.13;;;1.70;;
75038;SDS011;63609;49.992;14.512;2022-12-24T13:33:51;4.13;;;1.75;;
75038;SDS011;63609;49.992;14.512;2022-12-24T13:36:19;4.53;;;1.25;;
75038;SDS011;63609;49.992;14.512;2022-12-24T13:38:56;5.18;;;1.08;;
75038;SDS011;63609;49.992;14.512;2022-12-24T13:54:45;1.70;;;0.80;;
75038;SDS011;63609;49.992;14.512;2022-12-24T14:02:37;5.60;;;1.73;;
75038;SDS011;63609;49.992;14.512;2022-12-24T14:08:01;6.47;;;1.60;;
75038;SDS011;63609;49.992;14.512;2022-12-24T14:10:36;2.15;;;1.02;;
75038;SDS011;63609;49.992;14.512;2022-12-24T14:19:01;5.55;;;1.80;;
75038;SDS011;63609;49.992;14.512;2022-12-24T14:21:33;5.95;;;1.67;;
75038;SDS011;63609;49.992;14.512;2022-12-24T14:24:04;3.45;;;1.80;;
75038;SDS011;63609;49.992;14.512;2022-12-24T14:26:56;6.40;;;2.05;;
75038;SDS011;63609;49.992;14.512;2022-12-24T14:29:28;4.80;;;1.70;;
75038;SDS011;63609;49.992;14.512;2022-12-24T14:31:58;4.68;;;1.77;;
75038;SDS011;63609;49.992;14.512;2022-12-24T14:34:29;9.38;;;2.17;;
75038;SDS011;63609;49.992;14.512;2022-12-24T14:36:57;6.28;;;2.08;;
75038;SDS011;63609;49.992;14.512;2022-12-24T14:39:29;8.52;;;2.30;;
75038;SDS011;63609;49.992;14.512;2022-12-24T14:42:02;9.00;;;2.50;;
75038;SDS011;63609;49.992;14.512;2022-12-24T14:47:18;5.70;;;3.13;;
75038;SDS011;63609;49.992;14.512;2022-12-24T14:50:27;6.07;;;2.83;;
75038;SDS011;63609;49.992;14.512;2022-12-24T14:52:59;8.25;;;4.03;;
75038;SDS011;63609;49.992;14.512;2022-12-24T14:55:40;8.30;;;4.43;;
75038;SDS011;63609;49.992;14.512;2022-12-24T14:58:18;8.20;;;4.40;;
75038;SDS011;63609;49.992;14.512;2022-12-24T15:00:52;8.20;;;4.00;;
75038;SDS011;63609;49.992;14.512;2022-12-24T15:05:53;4.53;;;2.70;;
75038;SDS011;63609;49.992;14.512;2022-12-24T15:09:06;7.93;;;2.35;;
75038;SDS011;63609;49.992;14.512;2022-12-24T15:11:16;7.25;;;3.08;;
75038;SDS011;63609;49.992;14.512;2022-12-24T15:13:52;6.28;;;3.15;;
75038;SDS011;63609;49.992;14.512;2022-12-24T15:16:32;6.70;;;2.80;;
75038;SDS011;63609;49.992;14.512;2022-12-24T15:21:30;35.03;;;19.20;;
75038;SDS011;63609;49.992;14.512;2022-12-24T15:23:59;37.22;;;18.38;;
75038;SDS011;63609;49.992;14.512;2022-12-24T15:28:58;23.15;;;12.65;;
75038;SDS011;63609;49.992;14.512;2022-12-24T15:31:29;6.55;;;3.88;;
75038;SDS011;63609;49.992;14.512;2022-12-24T15:33:56;9.80;;;3.63;;
75038;SDS011;63609;49.992;14.512;2022-12-24T15:36:26;9.15;;;2.92;;
75038;SDS011;63609;49.992;14.512;2022-12-24T15:39:04;8.55;;;3.75;;
75038;SDS011;63609;49.992;14.512;2022-12-24T15:41:37;11.85;;;4.47;;
75038;SDS011;63609;49.992;14.512;2022-12-24T15:44:27;8.30;;;2.75;;
75038;SDS011;63609;49.992;14.512;2022-12-24T15:46:58;7.30;;;2.50;;
75038;SDS011;63609;49.992;14.512;2022-12-24T15:49:27;5.75;;;2.60;;
75038;SDS011;63609;49.992;14.512;2022-12-24T15:52:01;7.35;;;2.50;;
75038;SDS011;63609;49.992;14.512;2022-12-24T15:54:35;9.68;;;3.10;;
75038;SDS011;63609;49.992;14.512;2022-12-24T16:00:00;7.57;;;3.08;;
75038;SDS011;63609;49.992;14.512;2022-12-24T16:08:04;6.72;;;2.70;;
75038;SDS011;63609;49.992;14.512;2022-12-24T16:10:41;8.38;;;3.38;;
75038;SDS011;63609;49.992;14.512;2022-12-24T16:13:12;8.80;;;3.53;;
75038;SDS011;63609;49.992;14.512;2022-12-24T16:15:56;7.07;;;2.90;;
75038;SDS011;63609;49.992;14.512;2022-12-24T16:18:35;9.20;;;4.05;;
75038;SDS011;63609;49.992;14.512;2022-12-24T16:21:05;6.57;;;2.97;;
75038;SDS011;63609;49.992;14.512;2022-12-24T16:23:36;5.65;;;2.58;;
75038;SDS011;63609;49.992;14.512;2022-12-24T16:26:10;6.45;;;2.63;;
75038;SDS011;63609;49.992;14.512;2022-12-24T16:28:37;6.97;;;1.90;;
75038;SDS011;63609;49.992;14.512;2022-12-24T16:31:04;5.13;;;2.25;;
75038;SDS011;63609;49.992;14.512;2022-12-24T16:33:31;2.80;;;1.48;;
75038;SDS011;63609;49.992;14.512;2022-12-24T16:35:58;8.70;;;4.20;;
75038;SDS011;63609;49.992;14.512;2022-12-24T16:38:24;9.93;;;5.80;;
75038;SDS011;63609;49.992;14.512;2022-12-24T16:40:51;11.02;;;6.72;;
75038;SDS011;63609;49.992;14.512;2022-12-24T16:43:18;9.77;;;3.97;;
75038;SDS011;63609;49.992;14.512;2022-12-24T16:46:04;7.18;;;2.58;;
75038;SDS011;63609;49.992;14.512;2022-12-24T16:48:32;11.57;;;3.22;;
75038;SDS011;63609;49.992;14.512;2022-12-24T16:51:03;8.48;;;3.17;;
75038;SDS011;63609;49.992;14.512;2022-12-24T16:53:30;8.57;;;3.40;;
75038;SDS011;63609;49.992;14.512;2022-12-24T16:55:57;7.50;;;2.97;;
75038;SDS011;63609;49.992;14.512;2022-12-24T16:58:23;6.13;;;3.15;;
75038;SDS011;63609;49.992;14.512;2022-12-24T17:00:50;5.70;;;3.15;;
75038;SDS011;63609;49.992;14.512;2022-12-24T17:03:17;11.85;;;4.50;;
75038;SDS011;63609;49.992;14.512;2022-12-24T17:05:43;11.05;;;5.70;;
75038;SDS011;63609;49.992;14.512;2022-12-24T17:08:11;8.23;;;3.58;;
75038;SDS011;63609;49.992;14.512;2022-12-24T17:10:38;8.98;;;3.45;;
75038;SDS011;63609;49.992;14.512;2022-12-24T17:13:05;7.63;;;3.67;;
75038;SDS011;63609;49.992;14.512;2022-12-24T17:15:32;7.65;;;3.10;;
75038;SDS011;63609;49.992;14.512;2022-12-24T17:17:59;8.23;;;3.25;;
75038;SDS011;63609;49.992;14.512;2022-12-24T17:20:26;9.10;;;4.53;;
75038;SDS011;63609;49.992;14.512;2022-12-24T17:22:53;9.20;;;3.85;;
75038;SDS011;63609;49.992;14.512;2022-12-24T17:25:20;8.70;;;3.75;;
75038;SDS011;63609;49.992;14.512;2022-12-24T17:27:46;9.65;;;4.05;;
75038;SDS011;63609;49.992;14.512;2022-12-24T17:30:13;8.82;;;4.85;;
75038;SDS011;63609;49.992;14.512;2022-12-24T17:32:41;15.02;;;5.75;;
75038;SDS011;63609;49.992;14.512;2022-12-24T17:35:08;11.77;;;6.30;;
75038;SDS011;63609;49.992;14.512;2022-12-24T17:37:35;25.27;;;12.00;;
75038;SDS011;63609;49.992;14.512;2022-12-24T17:42:28;10.10;;;5.32;;